sensor_id;sensor_type;location;lat;lon;timestamp;P1;durP1;ratioP1;P2;durP2;ratioP2
65373;SDS011;52070;53.760;9.678;2023-12-20T00:00:21;10.55;;;2.13;;
65373;SDS011;52070;53.760;9.678;2023-12-20T00:02:48;9.00;;;1.70;;
65373;SDS011;52070;53.760;9.678;2023-12-20T00:05:15;16.52;;;2.25;;
65373;SDS011;52070;53.760;9.678;2023-12-20T00:07:43;20.13;;;2.20;;
65373;SDS011;52070;53.760;9.678;2023-12-20T00:10:10;19.30;;;2.42;;
65373;SDS011;52070;53.760;9.678;2023-12-20T00:12:38;13.80;;;1.98;;
65373;SDS011;52070;53.760;9.678;2023-12-20T00:15:08;10.45;;;1.98;;
65373;SDS011;52070;53.760;9.678;2023-12-20T00:17:35;15.63;;;1.73;;
65373;SDS011;52070;53.760;9.678;2023-12-20T00:20:02;10.27;;;1.17;;
65373;SDS011;52070;53.760;9.678;2023-12-20T00:22:29;12.80;;;1.70;;
65373;SDS011;52070;53.760;9.678;2023-12-20T00:24:56;17.27;;;1.70;;
65373;SDS011;52070;53.760;9.678;2023-12-20T00:27:23;12.13;;;1.50;;
65373;SDS011;52070;53.760;9.678;2023-12-20T00:29:50;14.07;;;1.48;;
65373;SDS011;52070;53.760;9.678;2023-12-20T00:32:18;15.02;;;1.80;;
65373;SDS011;52070;53.760;9.678;2023-12-20T00:34:45;9.30;;;1.42;;
65373;SDS011;52070;53.760;9.678;2023-12-20T00:37:12;16.17;;;2.88;;
65373;SDS011;52070;53.760;9.678;2023-12-20T00:39:39;9.57;;;1.30;;
65373;SDS011;52070;53.760;9.678;2023-12-20T00:42:06;8.85;;;1.35;;
65373;SDS011;52070;53.760;9.678;2023-12-20T00:44:33;16.70;;;1.58;;
65373;SDS011;52070;53.760;9.678;2023-12-20T00:47:00;12.50;;;1.73;;
65373;SDS011;52070;53.760;9.678;2023-12-20T00:49:28;21.27;;;2.03;;
65373;SDS011;52070;53.760;9.678;2023-12-20T00:51:55;14.45;;;1.35;;
65373;SDS011;52070;53.760;9.678;2023-12-20T00:54:22;11.00;;;1.63;;
65373;SDS011;52070;53.760;9.678;2023-12-20T00:56:49;15.35;;;1.55;;
65373;SDS011;52070;53.760;9.678;2023-12-20T00:59:16;15.65;;;1.40;;
65373;SDS011;52070;53.760;9.678;2023-12-20T01:01:44;18.85;;;1.50;;
65373;SDS011;52070;53.760;9.678;2023-12-20T01:04:11;13.23;;;1.10;;
65373;SDS011;52070;53.760;9.678;2023-12-20T01:06:39;13.27;;;1.55;;
65373;SDS011;52070;53.760;9.678;2023-12-20T01:09:06;14.52;;;1.35;;
65373;SDS011;52070;53.760;9.678;2023-12-20T01:11:33;11.98;;;1.33;;
65373;SDS011;52070;53.760;9.678;2023-12-20T01:14:00;20.40;;;1.77;;
65373;SDS011;52070;53.760;9.678;2023-12-20T01:16:27;10.98;;;1.50;;
65373;SDS011;52070;53.760;9.678;2023-12-20T01:18:54;20.80;;;1.70;;
65373;SDS011;52070;53.760;9.678;2023-12-20T01:21:20;16.48;;;1.45;;
65373;SDS011;52070;53.760;9.678;2023-12-20T01:23:49;17.73;;;1.13;;
65373;SDS011;52070;53.760;9.678;2023-12-20T01:26:16;14.00;;;2.25;;
65373;SDS011;52070;53.760;9.678;2023-12-20T01:28:43;10.18;;;1.40;;
65373;SDS011;52070;53.760;9.678;2023-12-20T01:31:10;12.27;;;2.28;;
65373;SDS011;52070;53.760;9.678;2023-12-20T01:33:37;11.38;;;1.58;;
65373;SDS011;52070;53.760;9.678;2023-12-20T01:36:04;13.95;;;2.33;;
65373;SDS011;52070;53.760;9.678;2023-12-20T01:38:31;10.55;;;1.48;;
65373;SDS011;52070;53.760;9.678;2023-12-20T01:40:59;17.98;;;1.63;;
65373;SDS011;52070;53.760;9.678;2023-12-20T01:43:26;12.88;;;1.92;;
65373;SDS011;52070;53.760;9.678;2023-12-20T01:45:54;17.00;;;2.08;;
65373;SDS011;52070;53.760;9.678;2023-12-20T01:48:22;12.43;;;1.15;;
65373;SDS011;52070;53.760;9.678;2023-12-20T01:50:50;17.60;;;1.58;;
65373;SDS011;52070;53.760;9.678;2023-12-20T01:53:18;27.02;;;1.45;;
65373;SDS011;52070;53.760;9.678;2023-12-20T01:55:46;12.13;;;1.80;;
65373;SDS011;52070;53.760;9.678;2023-12-20T01:58:16;13.23;;;1.40;;
65373;SDS011;52070;53.760;9.678;2023-12-20T02:00:43;15.07;;;1.48;;
65373;SDS011;52070;53.760;9.678;2023-12-20T02:03:11;15.35;;;2.15;;
65373;SDS011;52070;53.760;9.678;2023-12-20T02:05:38;11.73;;;1.52;;
65373;SDS011;52070;53.760;9.678;2023-12-20T02:08:06;16.25;;;2.08;;
65373;SDS011;52070;53.760;9.678;2023-12-20T02:10:33;10.70;;;1.20;;
65373;SDS011;52070;53.760;9.678;2023-12-20T02:13:00;18.40;;;1.25;;
65373;SDS011;52070;53.760;9.678;2023-12-20T02:15:29;18.80;;;2.13;;
65373;SDS011;52070;53.760;9.678;2023-12-20T02:17:56;9.70;;;1.08;;
65373;SDS011;52070;53.760;9.678;2023-12-20T02:20:23;10.18;;;1.75;;
65373;SDS011;52070;53.760;9.678;2023-12-20T02:22:51;16.92;;;1.10;;
65373;SDS011;52070;53.760;9.678;2023-12-20T02:25:18;10.55;;;1.60;;
65373;SDS011;52070;53.760;9.678;2023-12-20T02:27:45;21.52;;;1.73;;
65373;SDS011;52070;53.760;9.678;2023-12-20T02:30:12;9.25;;;1.23;;
65373;SDS011;52070;53.760;9.678;2023-12-20T02:32:39;16.17;;;1.83;;
65373;SDS011;52070;53.760;9.678;2023-12-20T02:35:06;10.43;;;1.50;;
65373;SDS011;52070;53.760;9.678;2023-12-20T02:37:33;12.90;;;1.25;;
65373;SDS011;52070;53.760;9.678;2023-12-20T02:40:02;11.02;;;1.20;;
65373;SDS011;52070;53.760;9.678;2023-12-20T02:42:29;13.02;;;1.35;;
65373;SDS011;52070;53.760;9.678;2023-12-20T02:44:56;5.20;;;1.02;;
65373;SDS011;52070;53.760;9.678;2023-12-20T02:47:23;6.75;;;0.98;;
65373;SDS011;52070;53.760;9.678;2023-12-20T02:49:50;9.60;;;1.02;;
65373;SDS011;52070;53.760;9.678;2023-12-20T02:52:18;5.80;;;1.00;;
65373;SDS011;52070;53.760;9.678;2023-12-20T02:54:45;11.73;;;1.50;;
65373;SDS011;52070;53.760;9.678;2023-12-20T02:57:13;12.30;;;1.33;;
65373;SDS011;52070;53.760;9.678;2023-12-20T02:59:40;8.32;;;1.27;;
65373;SDS011;52070;53.760;9.678;2023-12-20T03:02:07;8.10;;;1.25;;
65373;SDS011;52070;53.760;9.678;2023-12-20T03:04:34;12.02;;;1.73;;
65373;SDS011;52070;53.760;9.678;2023-12-20T03:07:01;13.48;;;1.65;;
65373;SDS011;52070;53.760;9.678;2023-12-20T03:09:28;10.90;;;1.35;;
65373;SDS011;52070;53.760;9.678;2023-12-20T03:11:55;16.23;;;1.75;;
65373;SDS011;52070;53.760;9.678;2023-12-20T03:14:23;9.45;;;1.58;;
65373;SDS011;52070;53.760;9.678;2023-12-20T03:16:50;19.98;;;2.05;;
65373;SDS011;52070;53.760;9.678;2023-12-20T03:19:18;19.85;;;2.03;;
65373;SDS011;52070;53.760;9.678;2023-12-20T03:21:45;7.93;;;1.65;;
65373;SDS011;52070;53.760;9.678;2023-12-20T03:24:12;7.93;;;1.10;;
65373;SDS011;52070;53.760;9.678;2023-12-20T03:26:39;14.27;;;2.25;;
65373;SDS011;52070;53.760;9.678;2023-12-20T03:29:06;8.95;;;1.65;;
65373;SDS011;52070;53.760;9.678;2023-12-20T03:31:34;8.95;;;1.40;;
65373;SDS011;52070;53.760;9.678;2023-12-20T03:34:01;9.52;;;1.80;;
65373;SDS011;52070;53.760;9.678;2023-12-20T03:36:28;15.85;;;1.38;;
65373;SDS011;52070;53.760;9.678;2023-12-20T03:38:55;11.35;;;1.40;;
65373;SDS011;52070;53.760;9.678;2023-12-20T03:41:22;14.02;;;1.48;;
65373;SDS011;52070;53.760;9.678;2023-12-20T03:43:49;13.82;;;1.30;;
65373;SDS011;52070;53.760;9.678;2023-12-20T03:46:16;9.18;;;1.60;;
65373;SDS011;52070;53.760;9.678;2023-12-20T03:48:45;16.98;;;1.80;;
65373;SDS011;52070;53.760;9.678;2023-12-20T03:51:12;9.77;;;1.20;;
65373;SDS011;52070;53.760;9.678;2023-12-20T03:53:39;10.70;;;1.15;;
65373;SDS011;52070;53.760;9.678;2023-12-20T03:56:06;9.82;;;1.52;;
65373;SDS011;52070;53.760;9.678;2023-12-20T03:58:33;12.20;;;1.35;;
65373;SDS011;52070;53.760;9.678;2023-12-20T04:01:00;13.82;;;1.85;;
65373;SDS011;52070;53.760;9.678;2023-12-20T04:03:28;7.78;;;1.35;;
65373;SDS011;52070;53.760;9.678;2023-12-20T04:05:56;18.00;;;2.03;;
65373;SDS011;52070;53.760;9.678;2023-12-20T04:08:23;14.60;;;1.85;;
65373;SDS011;52070;53.760;9.678;2023-12-20T04:10:50;16.58;;;1.65;;
65373;SDS011;52070;53.760;9.678;2023-12-20T04:13:17;15.02;;;1.67;;
65373;SDS011;52070;53.760;9.678;2023-12-20T04:15:44;11.05;;;1.95;;
65373;SDS011;52070;53.760;9.678;2023-12-20T04:18:10;19.92;;;1.95;;
65373;SDS011;52070;53.760;9.678;2023-12-20T04:20:38;10.63;;;1.65;;
65373;SDS011;52070;53.760;9.678;2023-12-20T04:23:06;12.15;;;1.27;;
65373;SDS011;52070;53.760;9.678;2023-12-20T04:25:33;11.00;;;1.73;;
65373;SDS011;52070;53.760;9.678;2023-12-20T04:28:00;11.52;;;1.77;;
65373;SDS011;52070;53.760;9.678;2023-12-20T04:30:27;12.57;;;1.20;;
65373;SDS011;52070;53.760;9.678;2023-12-20T04:32:54;19.70;;;1.60;;
65373;SDS011;52070;53.760;9.678;2023-12-20T04:35:21;17.92;;;1.67;;
65373;SDS011;52070;53.760;9.678;2023-12-20T04:37:48;15.73;;;1.90;;
65373;SDS011;52070;53.760;9.678;2023-12-20T04:40:17;14.75;;;1.67;;
65373;SDS011;52070;53.760;9.678;2023-12-20T04:42:44;18.42;;;2.45;;
65373;SDS011;52070;53.760;9.678;2023-12-20T04:45:11;13.75;;;1.58;;
65373;SDS011;52070;53.760;9.678;2023-12-20T04:47:39;10.88;;;1.73;;
65373;SDS011;52070;53.760;9.678;2023-12-20T04:50:06;7.38;;;2.00;;
65373;SDS011;52070;53.760;9.678;2023-12-20T04:52:35;11.48;;;1.40;;
65373;SDS011;52070;53.760;9.678;2023-12-20T04:55:02;13.15;;;1.63;;
65373;SDS011;52070;53.760;9.678;2023-12-20T04:57:30;11.15;;;1.92;;
65373;SDS011;52070;53.760;9.678;2023-12-20T04:59:57;20.30;;;1.90;;
65373;SDS011;52070;53.760;9.678;2023-12-20T05:02:24;20.50;;;2.17;;
65373;SDS011;52070;53.760;9.678;2023-12-20T05:04:51;12.35;;;1.70;;
65373;SDS011;52070;53.760;9.678;2023-12-20T05:07:18;11.27;;;1.63;;
65373;SDS011;52070;53.760;9.678;2023-12-20T05:09:45;12.55;;;1.63;;
65373;SDS011;52070;53.760;9.678;2023-12-20T05:12:12;14.10;;;1.90;;
65373;SDS011;52070;53.760;9.678;2023-12-20T05:14:40;6.90;;;1.42;;
65373;SDS011;52070;53.760;9.678;2023-12-20T05:17:07;11.40;;;1.95;;
65373;SDS011;52070;53.760;9.678;2023-12-20T05:19:34;10.48;;;1.40;;
65373;SDS011;52070;53.760;9.678;2023-12-20T05:22:01;17.23;;;1.88;;
65373;SDS011;52070;53.760;9.678;2023-12-20T05:24:28;11.02;;;1.70;;
65373;SDS011;52070;53.760;9.678;2023-12-20T05:26:55;14.13;;;1.48;;
65373;SDS011;52070;53.760;9.678;2023-12-20T05:29:22;9.70;;;1.65;;
65373;SDS011;52070;53.760;9.678;2023-12-20T05:31:50;12.55;;;1.50;;
65373;SDS011;52070;53.760;9.678;2023-12-20T05:34:17;18.60;;;2.20;;
65373;SDS011;52070;53.760;9.678;2023-12-20T05:36:44;14.48;;;1.33;;
65373;SDS011;52070;53.760;9.678;2023-12-20T05:39:11;14.32;;;2.30;;
65373;SDS011;52070;53.760;9.678;2023-12-20T05:41:38;10.20;;;1.48;;
65373;SDS011;52070;53.760;9.678;2023-12-20T05:44:05;6.45;;;1.45;;
65373;SDS011;52070;53.760;9.678;2023-12-20T05:46:32;10.38;;;1.80;;
65373;SDS011;52070;53.760;9.678;2023-12-20T05:49:00;11.25;;;1.75;;
65373;SDS011;52070;53.760;9.678;2023-12-20T05:51:27;13.52;;;1.95;;
65373;SDS011;52070;53.760;9.678;2023-12-20T05:53:54;11.10;;;1.55;;
65373;SDS011;52070;53.760;9.678;2023-12-20T05:56:21;9.90;;;1.60;;
65373;SDS011;52070;53.760;9.678;2023-12-20T05:58:48;15.13;;;1.70;;
65373;SDS011;52070;53.760;9.678;2023-12-20T06:01:15;6.60;;;1.70;;
65373;SDS011;52070;53.760;9.678;2023-12-20T06:03:43;14.48;;;1.70;;
65373;SDS011;52070;53.760;9.678;2023-12-20T06:06:12;13.07;;;1.65;;
65373;SDS011;52070;53.760;9.678;2023-12-20T06:08:40;10.10;;;1.65;;
65373;SDS011;52070;53.760;9.678;2023-12-20T06:11:08;17.23;;;1.83;;
65373;SDS011;52070;53.760;9.678;2023-12-20T06:13:35;21.77;;;2.20;;
65373;SDS011;52070;53.760;9.678;2023-12-20T06:16:03;20.00;;;2.58;;
65373;SDS011;52070;53.760;9.678;2023-12-20T06:18:31;11.00;;;2.10;;
65373;SDS011;52070;53.760;9.678;2023-12-20T06:20:59;13.95;;;2.00;;
65373;SDS011;52070;53.760;9.678;2023-12-20T06:23:27;20.98;;;2.55;;
65373;SDS011;52070;53.760;9.678;2023-12-20T06:25:54;22.67;;;2.50;;
65373;SDS011;52070;53.760;9.678;2023-12-20T06:28:21;18.80;;;1.95;;
65373;SDS011;52070;53.760;9.678;2023-12-20T06:30:49;19.00;;;2.28;;
65373;SDS011;52070;53.760;9.678;2023-12-20T06:33:17;15.18;;;1.88;;
65373;SDS011;52070;53.760;9.678;2023-12-20T06:35:46;23.30;;;2.70;;
65373;SDS011;52070;53.760;9.678;2023-12-20T06:38:13;17.85;;;2.58;;
65373;SDS011;52070;53.760;9.678;2023-12-20T06:40:42;16.90;;;2.20;;
65373;SDS011;52070;53.760;9.678;2023-12-20T06:43:09;21.92;;;2.03;;
65373;SDS011;52070;53.760;9.678;2023-12-20T06:45:36;19.40;;;2.28;;
65373;SDS011;52070;53.760;9.678;2023-12-20T06:48:03;9.77;;;1.67;;
65373;SDS011;52070;53.760;9.678;2023-12-20T06:50:30;16.17;;;1.83;;
65373;SDS011;52070;53.760;9.678;2023-12-20T06:52:57;14.80;;;1.67;;
65373;SDS011;52070;53.760;9.678;2023-12-20T06:55:24;15.45;;;1.80;;
65373;SDS011;52070;53.760;9.678;2023-12-20T06:57:52;15.88;;;1.85;;
65373;SDS011;52070;53.760;9.678;2023-12-20T07:00:20;14.50;;;2.13;;
65373;SDS011;52070;53.760;9.678;2023-12-20T07:02:47;14.05;;;2.25;;
65373;SDS011;52070;53.760;9.678;2023-12-20T07:05:16;15.57;;;2.00;;
65373;SDS011;52070;53.760;9.678;2023-12-20T07:10:12;18.25;;;1.95;;
65373;SDS011;52070;53.760;9.678;2023-12-20T07:12:39;21.13;;;2.30;;
65373;SDS011;52070;53.760;9.678;2023-12-20T07:15:08;19.00;;;2.22;;
65373;SDS011;52070;53.760;9.678;2023-12-20T07:17:35;14.82;;;2.13;;
65373;SDS011;52070;53.760;9.678;2023-12-20T07:20:02;24.48;;;2.90;;
65373;SDS011;52070;53.760;9.678;2023-12-20T07:22:29;16.50;;;2.88;;
65373;SDS011;52070;53.760;9.678;2023-12-20T07:24:57;21.88;;;2.38;;
65373;SDS011;52070;53.760;9.678;2023-12-20T07:27:24;24.02;;;3.13;;
65373;SDS011;52070;53.760;9.678;2023-12-20T07:29:51;15.30;;;2.03;;
65373;SDS011;52070;53.760;9.678;2023-12-20T07:32:19;11.88;;;2.03;;
65373;SDS011;52070;53.760;9.678;2023-12-20T07:34:46;17.35;;;2.70;;
65373;SDS011;52070;53.760;9.678;2023-12-20T07:37:13;15.98;;;1.98;;
65373;SDS011;52070;53.760;9.678;2023-12-20T07:39:40;16.52;;;2.67;;
65373;SDS011;52070;53.760;9.678;2023-12-20T07:42:07;16.33;;;2.15;;
65373;SDS011;52070;53.760;9.678;2023-12-20T07:44:35;14.60;;;2.40;;
65373;SDS011;52070;53.760;9.678;2023-12-20T07:47:02;20.60;;;2.17;;
65373;SDS011;52070;53.760;9.678;2023-12-20T07:49:31;8.80;;;1.63;;
65373;SDS011;52070;53.760;9.678;2023-12-20T07:51:58;17.35;;;2.88;;
65373;SDS011;52070;53.760;9.678;2023-12-20T07:54:25;11.48;;;1.63;;
65373;SDS011;52070;53.760;9.678;2023-12-20T07:56:52;15.20;;;2.15;;
65373;SDS011;52070;53.760;9.678;2023-12-20T07:59:19;17.58;;;2.08;;
65373;SDS011;52070;53.760;9.678;2023-12-20T08:01:46;19.27;;;2.72;;
65373;SDS011;52070;53.760;9.678;2023-12-20T08:04:13;20.05;;;2.20;;
65373;SDS011;52070;53.760;9.678;2023-12-20T08:06:41;17.17;;;2.22;;
65373;SDS011;52070;53.760;9.678;2023-12-20T08:09:08;15.68;;;2.85;;
65373;SDS011;52070;53.760;9.678;2023-12-20T08:11:35;8.10;;;1.35;;
65373;SDS011;52070;53.760;9.678;2023-12-20T08:14:02;11.77;;;1.88;;
65373;SDS011;52070;53.760;9.678;2023-12-20T08:16:29;18.75;;;1.85;;
65373;SDS011;52070;53.760;9.678;2023-12-20T08:18:56;12.02;;;1.98;;
65373;SDS011;52070;53.760;9.678;2023-12-20T08:21:23;16.85;;;2.00;;
65373;SDS011;52070;53.760;9.678;2023-12-20T08:23:51;11.57;;;2.05;;
65373;SDS011;52070;53.760;9.678;2023-12-20T08:26:18;9.75;;;1.83;;
65373;SDS011;52070;53.760;9.678;2023-12-20T08:28:48;17.38;;;2.17;;
65373;SDS011;52070;53.760;9.678;2023-12-20T08:31:15;8.98;;;1.88;;
65373;SDS011;52070;53.760;9.678;2023-12-20T08:33:43;13.30;;;1.90;;
65373;SDS011;52070;53.760;9.678;2023-12-20T08:36:11;16.00;;;1.85;;
65373;SDS011;52070;53.760;9.678;2023-12-20T08:38:37;21.33;;;2.38;;
65373;SDS011;52070;53.760;9.678;2023-12-20T08:41:06;13.68;;;2.17;;
65373;SDS011;52070;53.760;9.678;2023-12-20T08:43:33;18.60;;;2.90;;
65373;SDS011;52070;53.760;9.678;2023-12-20T08:46:01;14.00;;;2.10;;
65373;SDS011;52070;53.760;9.678;2023-12-20T08:48:28;19.67;;;2.33;;
65373;SDS011;52070;53.760;9.678;2023-12-20T08:50:55;12.32;;;1.85;;
65373;SDS011;52070;53.760;9.678;2023-12-20T08:53:22;10.30;;;1.77;;
65373;SDS011;52070;53.760;9.678;2023-12-20T08:55:50;9.93;;;2.38;;
65373;SDS011;52070;53.760;9.678;2023-12-20T08:58:18;7.28;;;1.02;;
65373;SDS011;52070;53.760;9.678;2023-12-20T09:00:45;2.65;;;0.98;;
65373;SDS011;52070;53.760;9.678;2023-12-20T09:03:12;2.05;;;0.70;;
65373;SDS011;52070;53.760;9.678;2023-12-20T09:05:39;6.57;;;0.63;;
65373;SDS011;52070;53.760;9.678;2023-12-20T09:08:06;1.98;;;0.70;;
65373;SDS011;52070;53.760;9.678;2023-12-20T09:10:35;0.63;;;0.45;;
65373;SDS011;52070;53.760;9.678;2023-12-20T09:13:02;2.42;;;1.00;;
65373;SDS011;52070;53.760;9.678;2023-12-20T09:15:31;3.83;;;1.02;;
65373;SDS011;52070;53.760;9.678;2023-12-20T09:17:59;4.03;;;0.90;;
65373;SDS011;52070;53.760;9.678;2023-12-20T09:20:26;3.17;;;0.65;;
65373;SDS011;52070;53.760;9.678;2023-12-20T09:22:53;4.15;;;1.13;;
65373;SDS011;52070;53.760;9.678;2023-12-20T09:25:20;1.20;;;0.70;;
65373;SDS011;52070;53.760;9.678;2023-12-20T09:27:48;0.73;;;0.52;;
65373;SDS011;52070;53.760;9.678;2023-12-20T09:30:15;6.13;;;1.30;;
65373;SDS011;52070;53.760;9.678;2023-12-20T09:32:44;2.03;;;0.40;;
65373;SDS011;52070;53.760;9.678;2023-12-20T09:35:11;3.30;;;0.77;;
65373;SDS011;52070;53.760;9.678;2023-12-20T09:37:39;2.10;;;0.43;;
65373;SDS011;52070;53.760;9.678;2023-12-20T09:40:11;2.50;;;0.63;;
65373;SDS011;52070;53.760;9.678;2023-12-20T09:42:42;1.33;;;0.70;;
65373;SDS011;52070;53.760;9.678;2023-12-20T09:45:15;9.65;;;0.57;;
65373;SDS011;52070;53.760;9.678;2023-12-20T09:47:47;0.95;;;0.32;;
65373;SDS011;52070;53.760;9.678;2023-12-20T09:50:15;2.70;;;0.40;;
65373;SDS011;52070;53.760;9.678;2023-12-20T09:52:44;7.72;;;0.65;;
65373;SDS011;52070;53.760;9.678;2023-12-20T09:55:16;3.85;;;0.65;;
65373;SDS011;52070;53.760;9.678;2023-12-20T09:57:44;2.60;;;0.50;;
65373;SDS011;52070;53.760;9.678;2023-12-20T10:00:11;6.05;;;0.60;;
65373;SDS011;52070;53.760;9.678;2023-12-20T10:02:40;2.28;;;0.60;;
65373;SDS011;52070;53.760;9.678;2023-12-20T10:05:15;1.50;;;0.55;;
65373;SDS011;52070;53.760;9.678;2023-12-20T10:07:44;7.57;;;0.70;;
65373;SDS011;52070;53.760;9.678;2023-12-20T10:10:12;6.25;;;0.98;;
65373;SDS011;52070;53.760;9.678;2023-12-20T10:12:40;6.68;;;0.80;;
65373;SDS011;52070;53.760;9.678;2023-12-20T10:15:07;6.45;;;0.70;;
65373;SDS011;52070;53.760;9.678;2023-12-20T10:17:35;13.45;;;1.10;;
65373;SDS011;52070;53.760;9.678;2023-12-20T10:20:03;2.60;;;0.52;;
65373;SDS011;52070;53.760;9.678;2023-12-20T10:22:37;7.93;;;1.00;;
65373;SDS011;52070;53.760;9.678;2023-12-20T10:25:04;6.80;;;0.82;;
65373;SDS011;52070;53.760;9.678;2023-12-20T10:27:31;4.53;;;0.93;;
65373;SDS011;52070;53.760;9.678;2023-12-20T10:29:59;8.00;;;1.15;;
65373;SDS011;52070;53.760;9.678;2023-12-20T10:32:26;9.43;;;1.08;;
65373;SDS011;52070;53.760;9.678;2023-12-20T10:34:54;9.45;;;0.93;;
65373;SDS011;52070;53.760;9.678;2023-12-20T10:37:21;5.18;;;0.90;;
65373;SDS011;52070;53.760;9.678;2023-12-20T10:39:51;4.50;;;0.90;;
65373;SDS011;52070;53.760;9.678;2023-12-20T10:42:21;3.28;;;0.77;;
65373;SDS011;52070;53.760;9.678;2023-12-20T10:44:49;8.80;;;1.15;;
65373;SDS011;52070;53.760;9.678;2023-12-20T10:47:16;8.23;;;1.58;;
65373;SDS011;52070;53.760;9.678;2023-12-20T10:49:42;10.32;;;1.30;;
65373;SDS011;52070;53.760;9.678;2023-12-20T10:52:11;7.13;;;0.95;;
65373;SDS011;52070;53.760;9.678;2023-12-20T10:54:39;8.52;;;1.27;;
65373;SDS011;52070;53.760;9.678;2023-12-20T10:57:08;20.75;;;1.77;;
65373;SDS011;52070;53.760;9.678;2023-12-20T10:59:36;16.35;;;2.88;;
65373;SDS011;52070;53.760;9.678;2023-12-20T11:02:04;5.53;;;0.98;;
65373;SDS011;52070;53.760;9.678;2023-12-20T11:04:35;4.40;;;0.90;;
65373;SDS011;52070;53.760;9.678;2023-12-20T11:07:07;11.90;;;1.23;;
65373;SDS011;52070;53.760;9.678;2023-12-20T11:09:43;10.77;;;1.20;;
65373;SDS011;52070;53.760;9.678;2023-12-20T11:12:18;11.05;;;1.23;;
65373;SDS011;52070;53.760;9.678;2023-12-20T11:14:51;6.60;;;1.35;;
65373;SDS011;52070;53.760;9.678;2023-12-20T11:17:21;11.80;;;1.00;;
65373;SDS011;52070;53.760;9.678;2023-12-20T11:20:08;12.90;;;1.80;;
65373;SDS011;52070;53.760;9.678;2023-12-20T11:22:37;12.85;;;1.48;;
65373;SDS011;52070;53.760;9.678;2023-12-20T11:25:08;12.38;;;1.20;;
65373;SDS011;52070;53.760;9.678;2023-12-20T11:27:40;9.48;;;1.55;;
65373;SDS011;52070;53.760;9.678;2023-12-20T11:30:08;24.63;;;1.88;;
65373;SDS011;52070;53.760;9.678;2023-12-20T11:32:36;22.77;;;2.72;;
65373;SDS011;52070;53.760;9.678;2023-12-20T11:35:16;16.85;;;1.40;;
65373;SDS011;52070;53.760;9.678;2023-12-20T11:37:45;9.15;;;1.30;;
65373;SDS011;52070;53.760;9.678;2023-12-20T11:40:14;11.35;;;2.33;;
65373;SDS011;52070;53.760;9.678;2023-12-20T11:42:44;17.83;;;1.63;;
65373;SDS011;52070;53.760;9.678;2023-12-20T11:45:13;12.48;;;2.45;;
65373;SDS011;52070;53.760;9.678;2023-12-20T11:47:42;16.58;;;2.10;;
65373;SDS011;52070;53.760;9.678;2023-12-20T11:50:10;18.95;;;2.20;;
65373;SDS011;52070;53.760;9.678;2023-12-20T11:52:37;15.80;;;2.25;;
65373;SDS011;52070;53.760;9.678;2023-12-20T11:55:04;16.77;;;1.88;;
65373;SDS011;52070;53.760;9.678;2023-12-20T11:57:32;14.80;;;2.30;;
65373;SDS011;52070;53.760;9.678;2023-12-20T12:00:01;11.93;;;2.47;;
65373;SDS011;52070;53.760;9.678;2023-12-20T12:02:29;22.15;;;2.28;;
65373;SDS011;52070;53.760;9.678;2023-12-20T12:04:56;15.93;;;1.83;;
65373;SDS011;52070;53.760;9.678;2023-12-20T12:07:24;18.33;;;2.15;;
65373;SDS011;52070;53.760;9.678;2023-12-20T12:09:51;11.15;;;1.80;;
65373;SDS011;52070;53.760;9.678;2023-12-20T12:12:18;19.58;;;3.05;;
65373;SDS011;52070;53.760;9.678;2023-12-20T12:14:46;12.20;;;2.08;;
65373;SDS011;52070;53.760;9.678;2023-12-20T12:17:16;17.20;;;2.40;;
65373;SDS011;52070;53.760;9.678;2023-12-20T12:19:43;13.32;;;1.95;;
65373;SDS011;52070;53.760;9.678;2023-12-20T12:22:11;18.27;;;2.28;;
65373;SDS011;52070;53.760;9.678;2023-12-20T12:24:39;17.30;;;2.20;;
65373;SDS011;52070;53.760;9.678;2023-12-20T12:27:06;13.68;;;2.30;;
65373;SDS011;52070;53.760;9.678;2023-12-20T12:29:33;17.48;;;2.88;;
65373;SDS011;52070;53.760;9.678;2023-12-20T12:32:02;11.20;;;2.05;;
65373;SDS011;52070;53.760;9.678;2023-12-20T12:34:32;24.55;;;2.05;;
65373;SDS011;52070;53.760;9.678;2023-12-20T12:37:00;20.48;;;2.30;;
65373;SDS011;52070;53.760;9.678;2023-12-20T12:39:28;21.20;;;2.25;;
65373;SDS011;52070;53.760;9.678;2023-12-20T12:41:56;19.17;;;2.53;;
65373;SDS011;52070;53.760;9.678;2023-12-20T12:44:23;15.13;;;2.03;;
65373;SDS011;52070;53.760;9.678;2023-12-20T12:46:51;11.80;;;1.77;;
65373;SDS011;52070;53.760;9.678;2023-12-20T12:49:19;16.23;;;2.55;;
65373;SDS011;52070;53.760;9.678;2023-12-20T12:51:48;21.08;;;2.92;;
65373;SDS011;52070;53.760;9.678;2023-12-20T12:54:15;13.80;;;1.90;;
65373;SDS011;52070;53.760;9.678;2023-12-20T12:56:43;10.55;;;2.05;;
65373;SDS011;52070;53.760;9.678;2023-12-20T12:59:12;15.57;;;2.55;;
65373;SDS011;52070;53.760;9.678;2023-12-20T13:01:39;14.60;;;2.28;;
65373;SDS011;52070;53.760;9.678;2023-12-20T13:04:06;13.25;;;2.28;;
65373;SDS011;52070;53.760;9.678;2023-12-20T13:06:36;19.90;;;2.25;;
65373;SDS011;52070;53.760;9.678;2023-12-20T13:09:04;14.35;;;2.50;;
65373;SDS011;52070;53.760;9.678;2023-12-20T13:11:31;15.68;;;2.30;;
65373;SDS011;52070;53.760;9.678;2023-12-20T13:13:58;22.40;;;2.28;;
65373;SDS011;52070;53.760;9.678;2023-12-20T13:16:25;14.43;;;2.15;;
65373;SDS011;52070;53.760;9.678;2023-12-20T13:18:52;16.60;;;2.58;;
65373;SDS011;52070;53.760;9.678;2023-12-20T13:21:19;18.75;;;2.63;;
65373;SDS011;52070;53.760;9.678;2023-12-20T13:23:46;15.30;;;2.70;;
65373;SDS011;52070;53.760;9.678;2023-12-20T13:26:15;15.40;;;3.53;;
65373;SDS011;52070;53.760;9.678;2023-12-20T13:28:42;16.30;;;3.20;;
65373;SDS011;52070;53.760;9.678;2023-12-20T13:31:09;12.68;;;2.10;;
65373;SDS011;52070;53.760;9.678;2023-12-20T13:33:36;21.75;;;2.78;;
65373;SDS011;52070;53.760;9.678;2023-12-20T13:36:03;23.25;;;2.85;;
65373;SDS011;52070;53.760;9.678;2023-12-20T13:38:31;21.38;;;2.95;;
65373;SDS011;52070;53.760;9.678;2023-12-20T13:40:58;20.27;;;3.22;;
65373;SDS011;52070;53.760;9.678;2023-12-20T13:43:26;15.18;;;3.65;;
65373;SDS011;52070;53.760;9.678;2023-12-20T13:45:53;25.10;;;3.03;;
65373;SDS011;52070;53.760;9.678;2023-12-20T13:48:20;16.63;;;2.70;;
65373;SDS011;52070;53.760;9.678;2023-12-20T13:50:47;17.40;;;3.25;;
65373;SDS011;52070;53.760;9.678;2023-12-20T13:53:14;10.75;;;2.83;;
65373;SDS011;52070;53.760;9.678;2023-12-20T13:55:41;8.98;;;1.90;;
65373;SDS011;52070;53.760;9.678;2023-12-20T13:58:08;12.10;;;2.40;;
65373;SDS011;52070;53.760;9.678;2023-12-20T14:00:37;15.65;;;2.65;;
65373;SDS011;52070;53.760;9.678;2023-12-20T14:03:04;9.25;;;2.50;;
65373;SDS011;52070;53.760;9.678;2023-12-20T14:05:31;8.13;;;1.80;;
65373;SDS011;52070;53.760;9.678;2023-12-20T14:07:58;12.30;;;2.85;;
65373;SDS011;52070;53.760;9.678;2023-12-20T14:10:26;11.13;;;2.67;;
65373;SDS011;52070;53.760;9.678;2023-12-20T14:12:53;18.25;;;2.78;;
65373;SDS011;52070;53.760;9.678;2023-12-20T14:15:20;14.82;;;2.70;;
65373;SDS011;52070;53.760;9.678;2023-12-20T14:17:48;22.67;;;2.75;;
65373;SDS011;52070;53.760;9.678;2023-12-20T14:20:15;11.90;;;2.40;;
65373;SDS011;52070;53.760;9.678;2023-12-20T14:22:43;19.88;;;2.67;;
65373;SDS011;52070;53.760;9.678;2023-12-20T14:25:10;11.60;;;2.25;;
65373;SDS011;52070;53.760;9.678;2023-12-20T14:27:38;17.17;;;2.15;;
65373;SDS011;52070;53.760;9.678;2023-12-20T14:30:05;11.50;;;2.10;;
65373;SDS011;52070;53.760;9.678;2023-12-20T14:32:34;10.60;;;2.47;;
65373;SDS011;52070;53.760;9.678;2023-12-20T14:35:04;16.83;;;3.10;;
65373;SDS011;52070;53.760;9.678;2023-12-20T14:37:31;21.35;;;2.45;;
65373;SDS011;52070;53.760;9.678;2023-12-20T14:39:58;15.30;;;2.88;;
65373;SDS011;52070;53.760;9.678;2023-12-20T14:42:25;18.20;;;3.13;;